sensor_id;sensor_type;location;lat;lon;timestamp;pressure;altitude;pressure_sealevel;temperature;humidity
72636;BME280;60679;48.888;15.544;2023-02-28T00:00:16;97073.09;;;-2.51;69.51
72636;BME280;60679;48.888;15.544;2023-02-28T00:02:42;97065.31;;;-2.53;69.42
72636;BME280;60679;48.888;15.544;2023-02-28T00:05:10;97063.06;;;-2.57;69.28
72636;BME280;60679;48.888;15.544;2023-02-28T00:07:36;97066.91;;;-2.61;69.11
72636;BME280;60679;48.888;15.544;2023-02-28T00:10:01;97065.47;;;-2.65;69.31
72636;BME280;60679;48.888;15.544;2023-02-28T00:12:27;97064.13;;;-2.71;69.38
72636;BME280;60679;48.888;15.544;2023-02-28T00:14:52;97063.66;;;-2.76;69.42
72636;BME280;60679;48.888;15.544;2023-02-28T00:17:18;97056.97;;;-2.80;69.39
72636;BME280;60679;48.888;15.544;2023-02-28T00:19:50;97064.53;;;-2.86;69.51
72636;BME280;60679;48.888;15.544;2023-02-28T00:22:17;97071.00;;;-2.91;69.41
72636;BME280;60679;48.888;15.544;2023-02-28T00:24:43;97067.91;;;-2.96;69.42
72636;BME280;60679;48.888;15.544;2023-02-28T00:27:08;97068.13;;;-2.99;69.71
72636;BME280;60679;48.888;15.544;2023-02-28T00:29:34;97065.88;;;-3.03;69.65
72636;BME280;60679;48.888;15.544;2023-02-28T00:31:59;97071.41;;;-3.06;69.65
72636;BME280;60679;48.888;15.544;2023-02-28T00:34:25;97076.91;;;-3.09;69.67
72636;BME280;60679;48.888;15.544;2023-02-28T00:36:50;97066.59;;;-3.12;69.75
72636;BME280;60679;48.888;15.544;2023-02-28T00:39:16;97071.25;;;-3.16;69.56
72636;BME280;60679;48.888;15.544;2023-02-28T00:41:41;97066.59;;;-3.23;69.65
72636;BME280;60679;48.888;15.544;2023-02-28T00:44:07;97059.63;;;-3.35;69.68
72636;BME280;60679;48.888;15.544;2023-02-28T00:46:32;97054.31;;;-3.46;69.74
72636;BME280;60679;48.888;15.544;2023-02-28T00:48:58;97059.50;;;-3.56;69.97
72636;BME280;60679;48.888;15.544;2023-02-28T00:51:23;97054.78;;;-3.64;69.94
72636;BME280;60679;48.888;15.544;2023-02-28T00:53:49;97050.94;;;-3.71;69.83
72636;BME280;60679;48.888;15.544;2023-02-28T00:56:14;97052.25;;;-3.76;69.94
72636;BME280;60679;48.888;15.544;2023-02-28T00:58:39;97060.63;;;-3.82;69.70
72636;BME280;60679;48.888;15.544;2023-02-28T01:01:05;97050.66;;;-3.90;70.03
72636;BME280;60679;48.888;15.544;2023-02-28T01:03:31;97056.28;;;-3.94;70.00
72636;BME280;60679;48.888;15.544;2023-02-28T01:05:56;97057.47;;;-3.98;70.18
72636;BME280;60679;48.888;15.544;2023-02-28T01:08:22;97057.22;;;-4.06;70.31
72636;BME280;60679;48.888;15.544;2023-02-28T01:10:48;97059.56;;;-4.15;70.14
72636;BME280;60679;48.888;15.544;2023-02-28T01:13:13;97057.63;;;-4.24;70.40
72636;BME280;60679;48.888;15.544;2023-02-28T01:15:42;97058.16;;;-4.31;70.26
72636;BME280;60679;48.888;15.544;2023-02-28T01:18:08;97063.06;;;-4.38;70.19
72636;BME280;60679;48.888;15.544;2023-02-28T01:20:36;97052.34;;;-4.47;70.10
72636;BME280;60679;48.888;15.544;2023-02-28T01:23:02;97054.81;;;-4.57;70.51
72636;BME280;60679;48.888;15.544;2023-02-28T01:25:27;97053.47;;;-4.62;70.49
72636;BME280;60679;48.888;15.544;2023-02-28T01:27:53;97042.78;;;-4.72;70.50
72636;BME280;60679;48.888;15.544;2023-02-28T01:30:19;97049.31;;;-4.78;70.81
72636;BME280;60679;48.888;15.544;2023-02-28T01:32:44;97050.63;;;-4.83;70.49
72636;BME280;60679;48.888;15.544;2023-02-28T01:35:09;97053.47;;;-4.86;70.59
72636;BME280;60679;48.888;15.544;2023-02-28T01:37:35;97046.84;;;-4.92;70.80
72636;BME280;60679;48.888;15.544;2023-02-28T01:40:01;97043.81;;;-4.98;70.63
72636;BME280;60679;48.888;15.544;2023-02-28T01:42:26;97044.97;;;-5.02;70.61
72636;BME280;60679;48.888;15.544;2023-02-28T01:47:20;97038.59;;;-5.11;70.61
72636;BME280;60679;48.888;15.544;2023-02-28T01:49:47;97035.41;;;-5.16;70.74
72636;BME280;60679;48.888;15.544;2023-02-28T01:52:14;97037.75;;;-5.24;70.84
72636;BME280;60679;48.888;15.544;2023-02-28T01:54:46;97033.88;;;-5.31;70.70
72636;BME280;60679;48.888;15.544;2023-02-28T01:57:17;97032.75;;;-5.40;70.93
72636;BME280;60679;48.888;15.544;2023-02-28T02:00:12;97033.69;;;-5.41;71.08
72636;BME280;60679;48.888;15.544;2023-02-28T02:02:41;97027.69;;;-5.43;71.01
72636;BME280;60679;48.888;15.544;2023-02-28T02:05:21;97028.84;;;-5.47;71.15
72636;BME280;60679;48.888;15.544;2023-02-28T02:07:49;97027.19;;;-5.48;70.86
72636;BME280;60679;48.888;15.544;2023-02-28T02:10:19;97025.69;;;-5.52;70.84
72636;BME280;60679;48.888;15.544;2023-02-28T02:15:32;97031.50;;;-5.59;70.93
72636;BME280;60679;48.888;15.544;2023-02-28T02:18:06;97025.28;;;-5.58;70.90
72636;BME280;60679;48.888;15.544;2023-02-28T02:26:19;97036.44;;;-5.55;71.05
72636;BME280;60679;48.888;15.544;2023-02-28T02:37:11;97032.53;;;-5.74;71.27
72636;BME280;60679;48.888;15.544;2023-02-28T02:39:53;97040.75;;;-5.79;71.01
72636;BME280;60679;48.888;15.544;2023-02-28T02:42:31;97038.59;;;-5.85;71.38
72636;BME280;60679;48.888;15.544;2023-02-28T02:45:12;97034.38;;;-5.88;71.01
72636;BME280;60679;48.888;15.544;2023-02-28T02:47:42;97033.53;;;-5.88;71.51
72636;BME280;60679;48.888;15.544;2023-02-28T02:50:15;97037.84;;;-5.87;71.48
72636;BME280;60679;48.888;15.544;2023-02-28T02:52:45;97036.88;;;-5.86;71.18
72636;BME280;60679;48.888;15.544;2023-02-28T02:55:14;97040.69;;;-5.90;71.00
72636;BME280;60679;48.888;15.544;2023-02-28T02:58:03;97035.63;;;-5.93;71.20
72636;BME280;60679;48.888;15.544;2023-02-28T03:00:37;97032.38;;;-5.97;71.12
72636;BME280;60679;48.888;15.544;2023-02-28T03:03:05;97030.78;;;-5.99;71.44
72636;BME280;60679;48.888;15.544;2023-02-28T03:05:39;97032.69;;;-6.01;71.30
72636;BME280;60679;48.888;15.544;2023-02-28T03:08:06;97031.84;;;-6.02;71.58
72636;BME280;60679;48.888;15.544;2023-02-28T03:10:44;97027.44;;;-6.01;71.66
72636;BME280;60679;48.888;15.544;2023-02-28T03:18:43;97027.44;;;-6.01;71.33
72636;BME280;60679;48.888;15.544;2023-02-28T03:21:35;97036.25;;;-6.02;71.48
72636;BME280;60679;48.888;15.544;2023-02-28T03:24:16;97026.69;;;-6.03;71.70
72636;BME280;60679;48.888;15.544;2023-02-28T03:26:46;97032.78;;;-6.03;71.64
72636;BME280;60679;48.888;15.544;2023-02-28T03:29:23;97029.31;;;-6.03;71.44
72636;BME280;60679;48.888;15.544;2023-02-28T03:34:55;97025.50;;;-6.12;71.73
72636;BME280;60679;48.888;15.544;2023-02-28T03:37:23;97028.25;;;-6.13;71.46
72636;BME280;60679;48.888;15.544;2023-02-28T03:40:02;97021.44;;;-6.16;71.47
72636;BME280;60679;48.888;15.544;2023-02-28T03:42:34;97028.25;;;-6.13;71.70
72636;BME280;60679;48.888;15.544;2023-02-28T03:45:04;97024.78;;;-6.14;71.80
72636;BME280;60679;48.888;15.544;2023-02-28T03:47:49;97023.09;;;-6.15;71.47
72636;BME280;60679;48.888;15.544;2023-02-28T03:50:20;97032.78;;;-6.15;71.69
72636;BME280;60679;48.888;15.544;2023-02-28T03:55:16;97035.94;;;-6.10;71.62
72636;BME280;60679;48.888;15.544;2023-02-28T03:57:57;97028.97;;;-6.11;71.56
72636;BME280;60679;48.888;15.544;2023-02-28T04:00:36;97030.69;;;-6.10;71.77
72636;BME280;60679;48.888;15.544;2023-02-28T04:03:04;97029.19;;;-6.14;71.47
72636;BME280;60679;48.888;15.544;2023-02-28T04:05:29;97032.78;;;-6.15;71.92
72636;BME280;60679;48.888;15.544;2023-02-28T04:08:06;97031.72;;;-6.13;71.66
72636;BME280;60679;48.888;15.544;2023-02-28T04:10:32;97036.03;;;-6.12;71.79
72636;BME280;60679;48.888;15.544;2023-02-28T04:12:58;97034.16;;;-6.10;71.80
72636;BME280;60679;48.888;15.544;2023-02-28T04:15:23;97037.59;;;-6.09;71.78
72636;BME280;60679;48.888;15.544;2023-02-28T04:17:49;97035.16;;;-6.12;71.51
72636;BME280;60679;48.888;15.544;2023-02-28T04:20:15;97041.28;;;-6.12;71.90
72636;BME280;60679;48.888;15.544;2023-02-28T04:22:40;97042.97;;;-6.11;71.86
72636;BME280;60679;48.888;15.544;2023-02-28T04:25:06;97040.44;;;-6.12;72.04
72636;BME280;60679;48.888;15.544;2023-02-28T04:27:32;97028.25;;;-6.13;71.80
72636;BME280;60679;48.888;15.544;2023-02-28T04:29:58;97043.19;;;-6.14;72.01
72636;BME280;60679;48.888;15.544;2023-02-28T04:32:23;97040.53;;;-6.14;71.69
72636;BME280;60679;48.888;15.544;2023-02-28T04:34:48;97040.53;;;-6.14;71.76
72636;BME280;60679;48.888;15.544;2023-02-28T04:37:16;97037.00;;;-6.13;71.70
72636;BME280;60679;48.888;15.544;2023-02-28T04:39:42;97034.16;;;-6.10;72.00
72636;BME280;60679;48.888;15.544;2023-02-28T04:42:08;97035.81;;;-6.09;71.86
72636;BME280;60679;48.888;15.544;2023-02-28T04:44:34;97037.41;;;-6.06;71.93
72636;BME280;60679;48.888;15.544;2023-02-28T04:46:59;97039.09;;;-6.05;71.74
72636;BME280;60679;48.888;15.544;2023-02-28T04:49:25;97035.63;;;-6.06;72.08
72636;BME280;60679;48.888;15.544;2023-02-28T04:51:50;97032.97;;;-6.06;72.12
72636;BME280;60679;48.888;15.544;2023-02-28T04:54:16;97025.75;;;-6.02;71.64
72636;BME280;60679;48.888;15.544;2023-02-28T04:56:43;97038.69;;;-5.99;71.99
72636;BME280;60679;48.888;15.544;2023-02-28T04:59:08;97039.53;;;-5.99;71.94
72636;BME280;60679;48.888;15.544;2023-02-28T05:01:34;97032.56;;;-6.00;71.85
72636;BME280;60679;48.888;15.544;2023-02-28T05:04:01;97036.25;;;-6.02;71.56
72636;BME280;60679;48.888;15.544;2023-02-28T05:06:28;97037.41;;;-6.06;72.00
72636;BME280;60679;48.888;15.544;2023-02-28T05:08:54;97033.09;;;-6.07;71.72
72636;BME280;60679;48.888;15.544;2023-02-28T05:11:20;97033.84;;;-6.05;71.73
72636;BME280;60679;48.888;15.544;2023-02-28T05:13:45;97035.53;;;-6.04;71.93
72636;BME280;60679;48.888;15.544;2023-02-28T05:16:11;97029.41;;;-6.05;71.70
72636;BME280;60679;48.888;15.544;2023-02-28T05:18:37;97037.19;;;-6.03;72.06
72636;BME280;60679;48.888;15.544;2023-02-28T05:21:02;97037.94;;;-6.01;71.87
72636;BME280;60679;48.888;15.544;2023-02-28T05:23:28;97032.88;;;-5.92;71.86
72636;BME280;60679;48.888;15.544;2023-02-28T05:25:54;97039.72;;;-5.89;72.04
72636;BME280;60679;48.888;15.544;2023-02-28T05:28:22;97045.81;;;-5.89;72.04
72636;BME280;60679;48.888;15.544;2023-02-28T05:30:48;97043.19;;;-5.89;72.20
72636;BME280;60679;48.888;15.544;2023-02-28T05:33:13;97038.88;;;-5.90;72.22
72636;BME280;60679;48.888;15.544;2023-02-28T05:35:40;97039.72;;;-5.89;71.96
72636;BME280;60679;48.888;15.544;2023-02-28T05:38:06;97043.41;;;-5.92;72.04
72636;BME280;60679;48.888;15.544;2023-02-28T05:40:31;97044.34;;;-5.93;72.16
72636;BME280;60679;48.888;15.544;2023-02-28T05:42:57;97046.97;;;-5.93;72.03
72636;BME280;60679;48.888;15.544;2023-02-28T05:45:22;97043.53;;;-5.93;71.87
72636;BME280;60679;48.888;15.544;2023-02-28T05:47:48;97040.78;;;-5.92;72.05
72636;BME280;60679;48.888;15.544;2023-02-28T05:50:13;97044.97;;;-5.89;71.89
72636;BME280;60679;48.888;15.544;2023-02-28T05:52:39;97047.28;;;-5.85;72.12
72636;BME280;60679;48.888;15.544;2023-02-28T05:55:04;97048.84;;;-5.82;71.51
72636;BME280;60679;48.888;15.544;2023-02-28T05:57:30;97052.00;;;-5.77;71.98
72636;BME280;60679;48.888;15.544;2023-02-28T05:59:55;97052.44;;;-5.70;71.92
72636;BME280;60679;48.888;15.544;2023-02-28T06:02:20;97052.22;;;-5.67;71.57
72636;BME280;60679;48.888;15.544;2023-02-28T06:04:46;97058.94;;;-5.63;71.55
72636;BME280;60679;48.888;15.544;2023-02-28T06:07:11;97060.31;;;-5.58;71.60
72636;BME280;60679;48.888;15.544;2023-02-28T06:09:37;97055.56;;;-5.53;71.47
72636;BME280;60679;48.888;15.544;2023-02-28T06:12:04;97067.78;;;-5.52;71.85
72636;BME280;60679;48.888;15.544;2023-02-28T06:14:31;97070.28;;;-5.50;71.47
72636;BME280;60679;48.888;15.544;2023-02-28T06:16:58;97069.16;;;-5.46;71.60
72636;BME280;60679;48.888;15.544;2023-02-28T06:19:24;97069.66;;;-5.41;71.61
72636;BME280;60679;48.888;15.544;2023-02-28T06:21:51;97076.28;;;-5.36;71.26
72636;BME280;60679;48.888;15.544;2023-02-28T06:24:21;97078.63;;;-5.31;71.06
72636;BME280;60679;48.888;15.544;2023-02-28T06:26:46;97079.56;;;-5.19;71.20
72636;BME280;60679;48.888;15.544;2023-02-28T06:29:12;97078.78;;;-5.09;71.26
72636;BME280;60679;48.888;15.544;2023-02-28T06:31:38;97083.19;;;-4.97;70.96
72636;BME280;60679;48.888;15.544;2023-02-28T06:34:04;97082.81;;;-4.80;70.50
72636;BME280;60679;48.888;15.544;2023-02-28T06:36:30;97088.25;;;-4.57;70.75
72636;BME280;60679;48.888;15.544;2023-02-28T06:38:56;97086.56;;;-4.35;70.10
72636;BME280;60679;48.888;15.544;2023-02-28T06:41:23;97089.19;;;-4.11;69.83
72636;BME280;60679;48.888;15.544;2023-02-28T06:43:49;97094.28;;;-3.86;69.70
72636;BME280;60679;48.888;15.544;2023-02-28T06:46:14;97087.41;;;-3.65;69.51
72636;BME280;60679;48.888;15.544;2023-02-28T06:48:42;97083.75;;;-3.40;69.36
72636;BME280;60679;48.888;15.544;2023-02-28T06:51:11;97082.78;;;-3.28;69.10
72636;BME280;60679;48.888;15.544;2023-02-28T06:53:37;97078.22;;;-3.26;69.28
72636;BME280;60679;48.888;15.544;2023-02-28T06:56:07;97089.97;;;-3.30;69.55
72636;BME280;60679;48.888;15.544;2023-02-28T06:58:33;97087.72;;;-3.23;69.66
72636;BME280;60679;48.888;15.544;2023-02-28T11:19:17;97076.44;;;17.79;39.05
72636;BME280;60679;48.888;15.544;2023-02-28T11:21:50;97076.88;;;19.66;37.56
72636;BME280;60679;48.888;15.544;2023-02-28T11:24:41;97084.66;;;14.37;45.04
72636;BME280;60679;48.888;15.544;2023-02-28T11:29:49;97088.72;;;11.45;48.90
72636;BME280;60679;48.888;15.544;2023-02-28T11:32:23;97083.13;;;16.30;41.37
72636;BME280;60679;48.888;15.544;2023-02-28T11:37:37;97085.66;;;12.26;47.37
72636;BME280;60679;48.888;15.544;2023-02-28T11:40:15;97078.47;;;14.49;43.77
72636;BME280;60679;48.888;15.544;2023-02-28T11:42:53;97076.44;;;14.44;44.60
72636;BME280;60679;48.888;15.544;2023-02-28T11:45:42;97073.91;;;15.62;42.91
72636;BME280;60679;48.888;15.544;2023-02-28T11:48:26;97069.09;;;14.63;43.78
72636;BME280;60679;48.888;15.544;2023-02-28T11:54:57;97066.66;;;13.39;45.03
72636;BME280;60679;48.888;15.544;2023-02-28T11:56:58;97072.44;;;10.80;49.18
72636;BME280;60679;48.888;15.544;2023-02-28T11:59:54;97071.41;;;9.45;51.17
72636;BME280;60679;48.888;15.544;2023-02-28T12:11:52;97071.75;;;8.87;51.38
72636;BME280;60679;48.888;15.544;2023-02-28T12:14:14;97070.09;;;8.14;52.77
72636;BME280;60679;48.888;15.544;2023-02-28T12:22:09;97065.03;;;8.55;51.66
72636;BME280;60679;48.888;15.544;2023-02-28T12:27:27;97058.69;;;8.62;50.71
72636;BME280;60679;48.888;15.544;2023-02-28T12:30:37;97060.06;;;8.23;51.51
72636;BME280;60679;48.888;15.544;2023-02-28T12:32:51;97059.75;;;7.82;51.86
72636;BME280;60679;48.888;15.544;2023-02-28T12:35:24;97056.38;;;7.59;52.16
72636;BME280;60679;48.888;15.544;2023-02-28T12:37:57;97064.78;;;7.41;52.66
72636;BME280;60679;48.888;15.544;2023-02-28T12:40:31;97057.75;;;7.69;52.24
72636;BME280;60679;48.888;15.544;2023-02-28T12:43:02;97056.28;;;8.32;50.86
72636;BME280;60679;48.888;15.544;2023-02-28T12:48:03;97060.31;;;7.48;51.98
72636;BME280;60679;48.888;15.544;2023-02-28T12:50:32;97046.69;;;7.20;52.39
72636;BME280;60679;48.888;15.544;2023-02-28T12:58:33;97051.44;;;7.77;51.56
72636;BME280;60679;48.888;15.544;2023-02-28T13:09:23;97050.16;;;8.59;49.93
72636;BME280;60679;48.888;15.544;2023-02-28T13:11:50;97052.63;;;8.82;49.46
72636;BME280;60679;48.888;15.544;2023-02-28T13:14:29;97053.06;;;8.07;50.57
72636;BME280;60679;48.888;15.544;2023-02-28T13:17:12;97047.16;;;7.82;51.15
72636;BME280;60679;48.888;15.544;2023-02-28T13:22:37;97051.09;;;8.73;49.77
72636;BME280;60679;48.888;15.544;2023-02-28T13:27:55;97040.34;;;15.26;40.68
72636;BME280;60679;48.888;15.544;2023-02-28T13:33:32;97048.16;;;8.89;49.13
72636;BME280;60679;48.888;15.544;2023-02-28T13:38:43;97049.13;;;7.44;51.07
72636;BME280;60679;48.888;15.544;2023-02-28T16:34:14;97041.69;;;1.21;59.36
72636;BME280;60679;48.888;15.544;2023-02-28T16:36:40;97042.75;;;1.00;59.56
72636;BME280;60679;48.888;15.544;2023-02-28T16:41:36;97051.13;;;0.59;60.03
72636;BME280;60679;48.888;15.544;2023-02-28T16:44:02;97053.38;;;0.44;60.02
72636;BME280;60679;48.888;15.544;2023-02-28T16:46:35;97061.63;;;0.32;60.27
72636;BME280;60679;48.888;15.544;2023-02-28T16:49:01;97070.75;;;0.20;60.37
72636;BME280;60679;48.888;15.544;2023-02-28T16:51:26;97064.00;;;0.06;60.37
72636;BME280;60679;48.888;15.544;2023-02-28T16:53:52;97070.44;;;-0.06;60.54
72636;BME280;60679;48.888;15.544;2023-02-28T16:56:22;97074.06;;;-0.17;60.57
72636;BME280;60679;48.888;15.544;2023-02-28T16:58:50;97066.78;;;-0.24;60.74
72636;BME280;60679;48.888;15.544;2023-02-28T17:01:17;97078.09;;;-0.32;60.66
72636;BME280;60679;48.888;15.544;2023-02-28T17:03:49;97088.66;;;-0.41;60.89
72636;BME280;60679;48.888;15.544;2023-02-28T17:06:23;97088.94;;;-0.54;60.97
72636;BME280;60679;48.888;15.544;2023-02-28T17:08:50;97091.53;;;-0.64;61.03
72636;BME280;60679;48.888;15.544;2023-02-28T17:11:17;97092.59;;;-0.76;60.94
72636;BME280;60679;48.888;15.544;2023-02-28T17:13:42;97093.44;;;-0.85;61.05
72636;BME280;60679;48.888;15.544;2023-02-28T17:16:25;97083.75;;;-0.95;61.27
72636;BME280;60679;48.888;15.544;2023-02-28T17:18:53;97089.56;;;-1.01;61.50
72636;BME280;60679;48.888;15.544;2023-02-28T17:21:19;97094.69;;;-1.09;61.30
72636;BME280;60679;48.888;15.544;2023-02-28T17:23:44;97093.56;;;-1.17;61.37
72636;BME280;60679;48.888;15.544;2023-02-28T17:26:14;97100.47;;;-1.25;61.54
72636;BME280;60679;48.888;15.544;2023-02-28T17:28:42;97105.94;;;-1.38;61.36
72636;BME280;60679;48.888;15.544;2023-02-28T17:31:08;97102.66;;;-1.51;61.44
72636;BME280;60679;48.888;15.544;2023-02-28T17:33:34;97109.44;;;-1.58;61.74
72636;BME280;60679;48.888;15.544;2023-02-28T17:36:00;97111.03;;;-1.66;61.64
72636;BME280;60679;48.888;15.544;2023-02-28T17:38:25;97105.81;;;-1.78;61.72
72636;BME280;60679;48.888;15.544;2023-02-28T17:40:51;97116.91;;;-1.84;61.94
72636;BME280;60679;48.888;15.544;2023-02-28T17:43:22;97114.03;;;-1.92;61.79
72636;BME280;60679;48.888;15.544;2023-02-28T17:45:47;97114.81;;;-2.01;61.79
72636;BME280;60679;48.888;15.544;2023-02-28T17:48:13;97108.47;;;-2.09;61.84
72636;BME280;60679;48.888;15.544;2023-02-28T17:50:38;97107.19;;;-2.15;61.98
72636;BME280;60679;48.888;15.544;2023-02-28T17:53:03;97113.81;;;-2.20;62.02
72636;BME280;60679;48.888;15.544;2023-02-28T17:55:29;97109.84;;;-2.26;62.04
72636;BME280;60679;48.888;15.544;2023-02-28T17:57:54;97118.13;;;-2.30;62.25
72636;BME280;60679;48.888;15.544;2023-02-28T18:00:20;97113.22;;;-2.35;62.25
72636;BME280;60679;48.888;15.544;2023-02-28T18:02:49;97116.38;;;-2.41;62.27
72636;BME280;60679;48.888;15.544;2023-02-28T18:05:14;97117.69;;;-2.47;62.31
72636;BME280;60679;48.888;15.544;2023-02-28T18:07:43;97117.00;;;-2.49;62.59
72636;BME280;60679;48.888;15.544;2023-02-28T18:10:14;97116.38;;;-2.52;62.46
72636;BME280;60679;48.888;15.544;2023-02-28T18:12:41;97117.56;;;-2.56;62.58
72636;BME280;60679;48.888;15.544;2023-02-28T18:15:07;97114.72;;;-2.64;62.70
72636;BME280;60679;48.888;15.544;2023-02-28T18:17:32;97116.75;;;-2.68;62.66
72636;BME280;60679;48.888;15.544;2023-02-28T18:19:58;97121.31;;;-2.70;62.70
72636;BME280;60679;48.888;15.544;2023-02-28T18:22:24;97111.00;;;-2.73;62.77
72636;BME280;60679;48.888;15.544;2023-02-28T18:24:50;97107.63;;;-2.75;62.86
72636;BME280;60679;48.888;15.544;2023-02-28T18:27:15;97107.75;;;-2.76;62.75
72636;BME280;60679;48.888;15.544;2023-02-28T18:29:40;97110.66;;;-2.79;62.65
72636;BME280;60679;48.888;15.544;2023-02-28T18:32:06;97112.09;;;-2.86;62.63
72636;BME280;60679;48.888;15.544;2023-02-28T18:34:31;97124.13;;;-2.94;62.52
72636;BME280;60679;48.888;15.544;2023-02-28T18:36:57;97121.09;;;-3.00;63.08
72636;BME280;60679;48.888;15.544;2023-02-28T18:39:22;97119.88;;;-3.07;63.01
72636;BME280;60679;48.888;15.544;2023-02-28T18:41:48;97125.63;;;-3.13;63.12
72636;BME280;60679;48.888;15.544;2023-02-28T18:44:13;97126.72;;;-3.16;62.89
72636;BME280;60679;48.888;15.544;2023-02-28T18:46:39;97118.91;;;-3.17;62.89
72636;BME280;60679;48.888;15.544;2023-02-28T18:49:05;97123.50;;;-3.19;63.11
72636;BME280;60679;48.888;15.544;2023-02-28T18:51:30;97128.03;;;-3.21;63.09
72636;BME280;60679;48.888;15.544;2023-02-28T18:56:25;97124.44;;;-3.31;63.39
72636;BME280;60679;48.888;15.544;2023-02-28T18:58:51;97129.72;;;-3.31;63.19
72636;BME280;60679;48.888;15.544;2023-02-28T19:01:25;97126.59;;;-3.36;63.36
72636;BME280;60679;48.888;15.544;2023-02-28T19:03:54;97127.03;;;-3.42;63.26
72636;BME280;60679;48.888;15.544;2023-02-28T19:06:19;97121.28;;;-3.47;63.13
72636;BME280;60679;48.888;15.544;2023-02-28T19:08:45;97121.63;;;-3.52;63.47
72636;BME280;60679;48.888;15.544;2023-02-28T19:11:14;97127.75;;;-3.52;63.44
72636;BME280;60679;48.888;15.544;2023-02-28T19:13:40;97121.75;;;-3.54;63.63
72636;BME280;60679;48.888;15.544;2023-02-28T19:16:07;97119.44;;;-3.58;63.59
72636;BME280;60679;48.888;15.544;2023-02-28T19:18:33;97119.78;;;-3.63;63.61
72636;BME280;60679;48.888;15.544;2023-02-28T19:20:59;97117.38;;;-3.66;63.85
72636;BME280;60679;48.888;15.544;2023-02-28T19:23:25;97119.53;;;-3.71;63.43
72636;BME280;60679;48.888;15.544;2023-02-28T19:25:56;97118.81;;;-3.73;63.63
72636;BME280;60679;48.888;15.544;2023-02-28T19:28:22;97114.72;;;-3.77;63.81
72636;BME280;60679;48.888;15.544;2023-02-28T19:30:49;97111.13;;;-3.76;63.52
72636;BME280;60679;48.888;15.544;2023-02-28T19:33:18;97115.19;;;-3.72;63.96
72636;BME280;60679;48.888;15.544;2023-02-28T19:35:44;97118.47;;;-3.68;64.14
72636;BME280;60679;48.888;15.544;2023-02-28T19:38:09;97120.38;;;-3.70;64.23
72636;BME280;60679;48.888;15.544;2023-02-28T19:40:35;97126.72;;;-3.73;64.04
72636;BME280;60679;48.888;15.544;2023-02-28T19:43:01;97111.13;;;-3.76;64.04
72636;BME280;60679;48.888;15.544;2023-02-28T19:45:26;97128.25;;;-3.81;64.25
72636;BME280;60679;48.888;15.544;2023-02-28T19:47:53;97126.19;;;-3.89;64.31
72636;BME280;60679;48.888;15.544;2023-02-28T19:50:20;97121.47;;;-3.96;64.05
72636;BME280;60679;48.888;15.544;2023-02-28T19:52:45;97127.09;;;-4.01;64.18
72636;BME280;60679;48.888;15.544;2023-02-28T19:55:13;97123.94;;;-4.06;64.15
72636;BME280;60679;48.888;15.544;2023-02-28T19:57:39;97123.22;;;-4.08;64.53
72636;BME280;60679;48.888;15.544;2023-02-28T20:00:04;97122.59;;;-4.12;64.12
72636;BME280;60679;48.888;15.544;2023-02-28T20:02:30;97123.34;;;-4.10;64.30
72636;BME280;60679;48.888;15.544;2023-02-28T20:04:55;97128.63;;;-4.10;64.62
72636;BME280;60679;48.888;15.544;2023-02-28T20:07:21;97129.69;;;-4.12;64.47
72636;BME280;60679;48.888;15.544;2023-02-28T20:09:47;97125.00;;;-4.09;64.54
72636;BME280;60679;48.888;15.544;2023-02-28T20:12:13;97130.06;;;-4.05;64.67
72636;BME280;60679;48.888;15.544;2023-02-28T20:14:41;97126.72;;;-4.07;64.69
72636;BME280;60679;48.888;15.544;2023-02-28T20:17:06;97123.66;;;-4.14;64.68
72636;BME280;60679;48.888;15.544;2023-02-28T20:19:32;97125.69;;;-4.18;64.92
72636;BME280;60679;48.888;15.544;2023-02-28T20:21:58;97130.00;;;-4.17;64.86
72636;BME280;60679;48.888;15.544;2023-02-28T20:24:25;97122.22;;;-4.18;64.79
72636;BME280;60679;48.888;15.544;2023-02-28T20:26:54;97117.06;;;-4.20;65.00
72636;BME280;60679;48.888;15.544;2023-02-28T20:29:22;97118.13;;;-4.22;64.90
72636;BME280;60679;48.888;15.544;2023-02-28T20:31:47;97113.34;;;-4.17;65.02
72636;BME280;60679;48.888;15.544;2023-02-28T20:34:13;97114.69;;;-4.12;65.02
72636;BME280;60679;48.888;15.544;2023-02-28T20:36:38;97120.72;;;-4.10;65.28
72636;BME280;60679;48.888;15.544;2023-02-28T20:39:04;97117.56;;;-4.15;64.99
72636;BME280;60679;48.888;15.544;2023-02-28T20:41:29;97113.19;;;-4.27;65.04
72636;BME280;60679;48.888;15.544;2023-02-28T20:43:55;97118.19;;;-4.35;65.37
72636;BME280;60679;48.888;15.544;2023-02-28T20:46:27;97122.22;;;-4.42;65.31
72636;BME280;60679;48.888;15.544;2023-02-28T20:48:52;97125.06;;;-4.45;65.10
72636;BME280;60679;48.888;15.544;2023-02-28T20:51:20;97131.41;;;-4.47;65.07
72636;BME280;60679;48.888;15.544;2023-02-28T20:53:46;97127.19;;;-4.50;65.24
72636;BME280;60679;48.888;15.544;2023-02-28T20:56:15;97121.53;;;-4.56;65.54
72636;BME280;60679;48.888;15.544;2023-02-28T20:58:42;97123.53;;;-4.60;65.45
72636;BME280;60679;48.888;15.544;2023-02-28T21:01:19;97122.06;;;-4.64;65.41
72636;BME280;60679;48.888;15.544;2023-02-28T21:03:52;97126.16;;;-4.60;65.62
72636;BME280;60679;48.888;15.544;2023-02-28T21:06:19;97119.31;;;-4.62;65.26
72636;BME280;60679;48.888;15.544;2023-02-28T21:08:45;97125.13;;;-4.57;65.40
72636;BME280;60679;48.888;15.544;2023-02-28T21:11:19;97126.41;;;-4.63;65.55
72636;BME280;60679;48.888;15.544;2023-02-28T21:13:46;97127.78;;;-4.70;65.86
72636;BME280;60679;48.888;15.544;2023-02-28T21:16:14;97130.13;;;-4.78;65.47
72636;BME280;60679;48.888;15.544;2023-02-28T21:18:40;97118.00;;;-4.81;65.88
72636;BME280;60679;48.888;15.544;2023-02-28T21:21:09;97125.06;;;-4.81;65.68
72636;BME280;60679;48.888;15.544;2023-02-28T21:23:35;97118.31;;;-4.85;66.14
72636;BME280;60679;48.888;15.544;2023-02-28T21:26:09;97123.19;;;-4.92;65.74
72636;BME280;60679;48.888;15.544;2023-02-28T21:28:35;97129.94;;;-5.00;65.80
72636;BME280;60679;48.888;15.544;2023-02-28T21:31:06;97126.34;;;-4.99;65.84
72636;BME280;60679;48.888;15.544;2023-02-28T21:33:34;97116.66;;;-4.99;65.98
72636;BME280;60679;48.888;15.544;2023-02-28T21:36:05;97115.81;;;-4.87;66.22